地図

経路データ

SID SEASON NUMBER BASIN SUBBASIN NAME ISO_TIME NATURE LAT LON WMO_WIND WMO_PRES WMO_AGENCY TRACK_TYPE DIST2LAND LANDFALL IFLAG USA_AGENCY USA_ATCF_ID USA_LAT USA_LON USA_RECORD USA_STATUS USA_WIND USA_PRES USA_SSHS USA_R34_NE USA_R34_SE USA_R34_SW USA_R34_NW USA_R50_NE USA_R50_SE USA_R50_SW USA_R50_NW USA_R64_NE USA_R64_SE USA_R64_SW USA_R64_NW USA_POCI USA_ROCI USA_RMW USA_EYE TOKYO_LAT TOKYO_LON TOKYO_GRADE TOKYO_WIND TOKYO_PRES TOKYO_R50_DIR TOKYO_R50_LONG TOKYO_R50_SHORT TOKYO_R30_DIR TOKYO_R30_LONG TOKYO_R30_SHORT TOKYO_LAND CMA_LAT CMA_LON CMA_CAT CMA_WIND CMA_PRES HKO_LAT HKO_LON HKO_CAT HKO_WIND HKO_PRES NEWDELHI_LAT NEWDELHI_LON NEWDELHI_GRADE NEWDELHI_WIND NEWDELHI_PRES NEWDELHI_CI NEWDELHI_DP NEWDELHI_POCI REUNION_LAT REUNION_LON REUNION_TYPE REUNION_WIND REUNION_PRES REUNION_TNUM REUNION_CI REUNION_RMW REUNION_R34_NE REUNION_R34_SE REUNION_R34_SW REUNION_R34_NW REUNION_R50_NE REUNION_R50_SE REUNION_R50_SW REUNION_R50_NW REUNION_R64_NE REUNION_R64_SE REUNION_R64_SW REUNION_R64_NW BOM_LAT BOM_LON BOM_TYPE BOM_WIND BOM_PRES BOM_TNUM BOM_CI BOM_RMW BOM_R34_NE BOM_R34_SE BOM_R34_SW BOM_R34_NW BOM_R50_NE BOM_R50_SE BOM_R50_SW BOM_R50_NW BOM_R64_NE BOM_R64_SE BOM_R64_SW BOM_R64_NW BOM_ROCI BOM_POCI BOM_EYE BOM_POS_METHOD BOM_PRES_METHOD NADI_LAT NADI_LON NADI_CAT NADI_WIND NADI_PRES WELLINGTON_LAT WELLINGTON_LON WELLINGTON_WIND WELLINGTON_PRES DS824_LAT DS824_LON DS824_STAGE DS824_WIND DS824_PRES TD9636_LAT TD9636_LON TD9636_STAGE TD9636_WIND TD9636_PRES TD9635_LAT TD9635_LON TD9635_WIND TD9635_PRES TD9635_ROCI NEUMANN_LAT NEUMANN_LON NEUMANN_CLASS NEUMANN_WIND NEUMANN_PRES MLC_LAT MLC_LON MLC_CLASS MLC_WIND MLC_PRES USA_GUST BOM_GUST BOM_GUST_PER REUNION_GUST REUNION_GUST_PER USA_SEAHGT USA_SEARAD_NE USA_SEARAD_SE USA_SEARAD_SW USA_SEARAD_NW STORM_SPEED STORM_DIR
1912268N12134 1912 49 WP MM NOT_NAMED 1912-09-24 04:00:00 NR 12.1000 134.000 main 902 869 __________O___ -1 12.1000 134.000 7 8 268
1912268N12134 1912 49 WP MM NOT_NAMED 1912-09-24 06:00:00 NR 12.0914 133.734 main 869 826 __________P___ -1 12.0914 133.734 7 8 268
1912268N12134 1912 49 WP MM NOT_NAMED 1912-09-24 09:00:00 NR 12.0816 133.323 main 826 783 __________P___ -1 12.0816 133.323 7 8 269
1912268N12134 1912 49 WP MM NOT_NAMED 1912-09-24 12:00:00 NR 12.0801 132.879 main 783 729 __________P___ -1 12.0801 132.879 7 9 271
1912268N12134 1912 49 WP MM NOT_NAMED 1912-09-24 15:00:00 NR 12.0921 132.381 main 729 708 __________P___ -1 12.0921 132.381 7 10 272
1912268N12134 1912 49 WP MM NOT_NAMED 1912-09-24 16:00:00 NR 12.1000 132.200 main 708 665 __________O___ -1 12.1000 132.200 7 11 273
1912268N12134 1912 49 WP MM NOT_NAMED 1912-09-24 18:00:00 NR 12.1226 131.813 main 665 603 __________P___ -1 12.1226 131.813 7 12 274
1912268N12134 1912 49 WP MM NOT_NAMED 1912-09-24 21:00:00 NR 12.1751 131.187 main 603 532 __________P___ -1 12.1751 131.187 7 13 276
1912268N12134 1912 49 WP MM NOT_NAMED 1912-09-25 00:00:00 NR 12.2525 130.540 main 532 473 __________P___ -1 12.2525 130.540 7 13 278
1912268N12134 1912 49 WP MM NOT_NAMED 1912-09-25 03:00:00 NR 12.3580 129.903 main 473 452 __________P___ -1 12.3580 129.903 7 13 280
1912268N12134 1912 49 WP MM NOT_NAMED 1912-09-25 04:00:00 NR 12.4000 129.700 main 452 414 __________O___ -1 12.4000 129.700 7 12 283
1912268N12134 1912 49 WP MM NOT_NAMED 1912-09-25 06:00:00 NR 12.4883 129.314 main 414 361 __________P___ -1 12.4883 129.314 7 11 285
1912268N12134 1912 49 WP MM NOT_NAMED 1912-09-25 09:00:00 NR 12.6462 128.760 main 361 300 __________P___ -1 12.6462 128.760 7 11 288
1912268N12134 1912 49 WP MM NOT_NAMED 1912-09-25 12:00:00 NR 12.8288 128.239 main 300 265 __________P___ -1 12.8288 128.239 7 11 291
1912268N12134 1912 49 WP MM NOT_NAMED 1912-09-25 15:00:00 NR 13.0300 127.753 main 265 249 __________P___ -1 13.0300 127.753 7 10 294
1912268N12134 1912 49 WP MM NOT_NAMED 1912-09-25 16:00:00 NR 13.1000 127.600 main 249 225 __________O___ -1 13.1000 127.600 7 10 295
1912268N12134 1912 49 WP MM NOT_NAMED 1912-09-25 18:00:00 NR 13.2409 127.297 main 225 202 __________P___ -1 13.2409 127.297 7 10 297
1912268N12134 1912 49 WP MM NOT_NAMED 1912-09-25 21:00:00 NR 13.4652 126.874 main 210 194 __________P___ -1 13.4652 126.874 7 9 300
1912268N12134 1912 49 WP MM NOT_NAMED 1912-09-26 00:00:00 NR 13.6967 126.482 main 194 183 __________P___ -1 13.6967 126.482 7 9 302
1912268N12134 1912 49 WP MM NOT_NAMED 1912-09-26 03:00:00 NR 13.9258 126.117 main 183 173 __________P___ -1 13.9258 126.117 7 8 303
1912268N12134 1912 49 WP MM NOT_NAMED 1912-09-26 04:00:00 NR 14.0000 126.000 main 173 152 __________O___ -1 14.0000 126.000 3 8 301
1912268N12134 1912 49 WP MM NOT_NAMED 1912-09-26 06:00:00 NR 14.1363 125.758 main 152 116 __________P___ -1 14.1363 125.758 3 8 301
1912268N12134 1912 49 WP MM NOT_NAMED 1912-09-26 09:00:00 NR 14.3345 125.414 main 116 101 __________P___ -1 14.3345 125.414 3 8 302
1912268N12134 1912 49 WP MM NOT_NAMED 1912-09-26 12:00:00 NR 14.5307 125.093 main 101 93 __________P___ -1 14.5307 125.093 3 7 303
1912268N12134 1912 49 WP MM NOT_NAMED 1912-09-26 15:00:00 NR 14.7312 124.795 main 95 95 __________P___ -1 14.7312 124.795 3 7 305
1912268N12134 1912 49 WP MM NOT_NAMED 1912-09-26 16:00:00 NR 14.8000 124.700 main 99 95 __________O___ -1 14.8000 124.700 4 7 308
1912268N12134 1912 49 WP MM NOT_NAMED 1912-09-26 18:00:00 NR 14.9389 124.519 main 103 112 __________P___ -1 14.9389 124.519 4 7 310
1912268N12134 1912 49 WP MM NOT_NAMED 1912-09-26 21:00:00 NR 15.1535 124.266 main 134 134 __________P___ -1 15.1535 124.266 4 7 313
1912268N12134 1912 49 WP MM NOT_NAMED 1912-09-27 00:00:00 NR 15.3785 124.025 main 157 157 __________P___ -1 15.3785 124.025 4 7 315
1912268N12134 1912 49 WP MM NOT_NAMED 1912-09-27 03:00:00 NR 15.6170 123.783 main 181 169 __________P___ -1 15.6170 123.783 4 7 316
1912268N12134 1912 49 WP MM NOT_NAMED 1912-09-27 04:00:00 NR 15.7000 123.700 main 169 142 __________O___ -1 15.7000 123.700 4 7 314
1912268N12134 1912 49 WP MM NOT_NAMED 1912-09-27 06:00:00 NR 15.8667 123.509 main 142 107 __________P___ -1 15.8667 123.509 4 8 313
1912268N12134 1912 49 WP MM NOT_NAMED 1912-09-27 09:00:00 NR 16.1293 123.217 main 107 67 __________P___ -1 16.1293 123.217 4 8 314
1912268N12134 1912 49 WP MM NOT_NAMED 1912-09-27 12:00:00 NR 16.4068 122.933 main 67 30 __________P___ -1 16.4068 122.933 4 8 318
1912268N12134 1912 49 WP MM NOT_NAMED 1912-09-27 15:00:00 NR 16.6992 122.676 main 30 15 __________P___ -1 16.6992 122.676 4 8 321
1912268N12134 1912 49 WP MM NOT_NAMED 1912-09-27 16:00:00 NR 16.8000 122.600 main 15 0 __________O___ -1 16.8000 122.600 4 7 323
1912268N12134 1912 49 WP MM NOT_NAMED 1912-09-27 18:00:00 NR 16.9894 122.450 main 0 0 __________P___ -1 16.9894 122.450 4 7 326
1912268N12134 1912 49 WP MM NOT_NAMED 1912-09-27 21:00:00 NR 17.2859 122.257 main 0 0 __________P___ -1 17.2859 122.257 4 7 332
1912268N12134 1912 49 WP MM NOT_NAMED 1912-09-28 00:00:00 NR 17.6083 122.110 main 0 0 __________P___ -1 17.6083 122.110 4 7 342
1912268N12134 1912 49 WP MM NOT_NAMED 1912-09-28 03:00:00 NR 17.9691 122.017 main 0 0 __________P___ -1 17.9691 122.017 4 8 348
1912268N12134 1912 49 WP MM NOT_NAMED 1912-09-28 04:00:00 NR 18.1000 122.000 main 0 0 __________O___ -1 18.1000 122.000 4 8 354
1912268N12134 1912 49 WP MM NOT_NAMED 1912-09-28 06:00:00 NR 18.3875 121.969 main 10 10 __________P___ -1 18.3875 121.969 4 9 359
1912268N12134 1912 49 WP MM NOT_NAMED 1912-09-28 09:00:00 NR 18.8569 121.973 main 56 56 __________P___ -1 18.8569 121.973 4 10 3
1912268N12134 1912 49 WP MM NOT_NAMED 1912-09-28 12:00:00 NR 19.3497 122.035 main 101 112 __________P___ -1 19.3497 122.035 4 10 10
1912268N12134 1912 49 WP MM NOT_NAMED 1912-09-28 15:00:00 NR 19.8409 122.150 main 156 167 __________P___ -1 19.8409 122.150 4 10 13
1912268N12134 1912 49 WP MM NOT_NAMED 1912-09-28 16:00:00 NR 20.0000 122.200 main 178 178 __________O___ -1 20.0000 122.200 4 10 18
1912268N12134 1912 49 WP MM NOT_NAMED 1912-09-28 18:00:00 NR 20.3185 122.317 main 212 206 __________P___ -1 20.3185 122.317 4 10 22
1912268N12134 1912 49 WP MM NOT_NAMED 1912-09-28 21:00:00 NR 20.7841 122.538 main 206 202 __________P___ -1 20.7841 122.538 4 10 26
1912268N12134 1912 49 WP MM NOT_NAMED 1912-09-29 00:00:00 NR 21.2156 122.785 main 211 207 __________P___ -1 21.2156 122.785 4 9 29
1912268N12134 1912 49 WP MM NOT_NAMED 1912-09-29 03:00:00 NR 21.5910 123.026 main 219 219 __________P___ -1 21.5910 123.026 4 9 31
1912268N12134 1912 49 WP MM NOT_NAMED 1912-09-29 04:00:00 NR 21.7000 123.100 main 228 227 __________O___ -1 21.7000 123.100 4 7 30
1912268N12134 1912 49 WP MM NOT_NAMED 1912-09-29 06:00:00 NR 21.8845 123.212 main 228 224 __________P___ -1 21.8845 123.212 4 6 31
1912268N12134 1912 49 WP MM NOT_NAMED 1912-09-29 09:00:00 NR 22.1047 123.362 main 233 228 __________P___ -1 22.1047 123.362 4 5 34
1912268N12134 1912 49 WP MM NOT_NAMED 1912-09-29 12:00:00 NR 22.2819 123.501 main 233 233 __________P___ -1 22.2819 123.501 4 4 38
1912268N12134 1912 49 WP MM NOT_NAMED 1912-09-29 15:00:00 NR 22.4443 123.647 main 238 245 __________P___ -1 22.4443 123.647 4 4 40
1912268N12134 1912 49 WP MM NOT_NAMED 1912-09-29 16:00:00 NR 22.5000 123.700 main 245 245 __________O___ -1 22.5000 123.700 4 5 41
1912268N12134 1912 49 WP MM NOT_NAMED 1912-09-29 18:00:00 NR 22.6228 123.817 main 252 249 __________P___ -1 22.6228 123.817 4 5 43
1912268N12134 1912 49 WP MM NOT_NAMED 1912-09-29 21:00:00 NR 22.8068 124.005 main 268 268 __________P___ -1 22.8068 124.005 4 5 44
1912268N12134 1912 49 WP MM NOT_NAMED 1912-09-30 00:00:00 NR 23.0016 124.207 main 286 286 __________P___ -1 23.0016 124.207 4 6 43
1912268N12134 1912 49 WP MM NOT_NAMED 1912-09-30 03:00:00 NR 23.2199 124.424 main 292 292 __________P___ -1 23.2199 124.424 4 6 42
1912268N12134 1912 49 WP MM NOT_NAMED 1912-09-30 04:00:00 NR 23.3000 124.500 main 296 296 __________O___ -1 23.3000 124.500 4 7 39
1912268N12134 1912 49 WP MM NOT_NAMED 1912-09-30 06:00:00 NR 23.4850 124.655 main 305 301 __________P___ -1 23.4850 124.655 4 7 37
1912268N12134 1912 49 WP MM NOT_NAMED 1912-09-30 09:00:00 NR 23.7880 124.900 main 314 314 __________P___ -1 23.7880 124.900 4 8 37
1912268N12134 1912 49 WP MM NOT_NAMED 1912-09-30 12:00:00 NR 24.1020 125.156 main 337 335 __________P___ -1 24.1020 125.156 4 8 37
1912268N12134 1912 49 WP MM NOT_NAMED 1912-09-30 15:00:00 NR 24.4051 125.414 main 349 349 __________P___ -1 24.4051 125.414 4 8 38
1912268N12134 1912 49 WP MM NOT_NAMED 1912-09-30 16:00:00 NR 24.5000 125.500 main 357 357 __________O___ -1 24.5000 125.500 4 7 41
1912268N12134 1912 49 WP MM NOT_NAMED 1912-09-30 18:00:00 NR 24.6772 125.670 main 374 374 __________P___ -1 24.6772 125.670 4 7 43
1912268N12134 1912 49 WP MM NOT_NAMED 1912-09-30 21:00:00 NR 24.9162 125.922 main 393 393 __________P___ -1 24.9162 125.922 4 6 45
1912268N12134 1912 49 WP MM NOT_NAMED 1912-10-01 00:00:00 NR 25.1319 126.170 main 422 422 __________P___ -1 25.1319 126.170 4 6 47
1912268N12134 1912 49 WP MM NOT_NAMED 1912-10-01 03:00:00 NR 25.3339 126.418 main 443 443 __________P___ -1 25.3339 126.418 4 6 48
1912268N12134 1912 49 WP MM NOT_NAMED 1912-10-01 04:00:00 NR 25.4000 126.500 main 454 __________O___ -1 25.4000 126.500 4 6 51

デジタル台風データ・検索

IBTrACS Databaseについて

本データベースは、米国NOAAが公開する1842年以降の世界の熱帯低気圧のベストトラックデータアーカイブInternational Best Track Archive for Climate Stewardship (IBTrACS)を、ウェブで閲覧しやすい形式に変換したものです。

最終更新日:2021-12-03